Time;durP1;ratioP1;P1;durP2;ratioP2;P2;SDS_P1;SDS_P2;PMS_P1;PMS_P2;Temp;Humidity;BMP_temperature;BMP_pressure;BME280_temperature;BME280_humidity;BME280_pressure;Samples;Min_cycle;Max_cycle;Signal;HPM_P1;HPM_P2
2023/02/08 00:01:27;;;;;;;39.23;26.23;;;4.10;99.90;;;4.29;74.84;103767.16;5093079;28;20054;-67
2023/02/08 00:03:55;;;;;;;42.03;26.67;;;4.10;99.90;;;4.31;74.60;103768.16;5093259;28;20069;-67
2023/02/08 00:06:23;;;;;;;42.07;27.50;;;4.20;99.90;;;4.50;74.48;103767.66;5093017;28;20044;-67
2023/02/08 00:08:53;;;;;;;43.53;29.43;;;4.30;99.90;;;4.59;74.19;103769.16;5093270;28;20066;-67
2023/02/08 00:11:21;;;;;;;43.53;29.08;;;4.40;99.90;;;4.63;74.08;103762.41;5093289;28;20117;-68
2023/02/08 00:13:50;;;;;;;46.17;29.37;;;4.50;99.90;;;4.50;73.90;103739.75;5093209;28;20040;-68
2023/02/08 00:16:18;;;;;;;42.87;29.07;;;4.50;99.90;;;4.66;73.94;103754.75;5075013;28;20097;-68
2023/02/08 00:18:47;;;;;;;43.80;28.70;;;4.50;99.90;;;4.63;74.18;103756.28;5092945;28;20061;-68
2023/02/08 00:21:18;;;;;;;42.27;28.20;;;4.50;99.90;;;4.66;73.75;103744.28;5092864;28;20083;-68
2023/02/08 00:23:46;;;;;;;49.33;30.07;;;4.60;99.90;;;4.66;73.63;103756.47;5093148;28;20456;-68
2023/02/08 00:26:17;;;;;;;41.30;28.40;;;4.60;99.90;;;4.70;73.76;103742.75;5071457;28;20053;-68
2023/02/08 00:28:46;;;;;;;41.65;28.13;;;4.60;99.90;;;4.75;73.22;103739.63;5073023;28;20033;-68
2023/02/08 00:31:17;;;;;;;43.03;26.27;;;4.60;99.90;;;4.78;72.99;103737.19;5071655;28;20143;-69
2023/02/08 00:33:45;;;;;;;35.90;25.40;;;4.60;99.90;;;4.78;73.10;103736.31;5071626;28;20106;-67
2023/02/08 00:36:14;;;;;;;41.30;27.17;;;4.70;99.90;;;4.73;73.25;103735.09;5072803;28;20040;-68
2023/02/08 00:38:42;;;;;;;41.77;28.50;;;4.60;99.90;;;4.62;72.92;103730.88;5072859;28;20071;-68
2023/02/08 00:41:11;;;;;;;39.40;26.57;;;4.50;99.90;;;4.42;73.77;103733.09;5071532;28;20053;-68
2023/02/08 00:43:41;;;;;;;34.57;26.23;;;4.40;99.90;;;4.26;74.46;103724.09;5072491;28;20507;-68
2023/02/08 00:46:09;;;;;;;40.63;26.52;;;4.20;99.90;;;4.40;74.36;103721.59;5072609;28;20059;-68
2023/02/08 00:48:38;;;;;;;37.57;26.27;;;4.30;99.90;;;4.40;74.15;103723.28;5071455;28;20072;-68
2023/02/08 00:51:10;;;;;;;39.37;26.30;;;4.30;99.90;;;3.80;74.74;103696.50;5072447;28;20469;-68
2023/02/08 00:53:41;;;;;;;38.27;27.23;;;4.00;99.90;;;3.82;75.54;103721.09;5071489;28;20041;-68
2023/02/08 00:56:12;;;;;;;36.70;25.93;;;3.80;99.90;;;3.93;75.84;103725.34;5072645;28;20048;-68
2023/02/08 00:58:43;;;;;;;42.10;26.53;;;3.80;99.90;;;4.05;76.02;103723.56;5072711;28;20072;-69
2023/02/08 01:01:11;;;;;;;;;;;3.90;99.90;;;4.11;75.85;103737.06;5072831;28;20034;-69
2023/02/08 01:03:41;;;;;;;46.03;26.33;;;4.10;99.90;;;4.07;75.64;103718.41;5074973;28;19943;-68
2023/02/08 01:06:15;;;;;;;36.05;25.48;;;4.10;99.90;;;4.26;75.12;103735.47;5074934;28;20076;-68
2023/02/08 01:08:45;;;;;;;37.10;25.40;;;4.20;99.90;;;4.30;75.15;103732.25;5074968;28;20044;-68
2023/02/08 01:11:17;;;;;;;35.87;25.57;;;4.20;99.90;;;4.33;75.05;103737.72;5075941;28;20363;-69
2023/02/08 01:13:47;;;;;;;38.07;25.87;;;4.30;99.90;;;4.33;74.65;103727.25;5074927;28;20087;-68
2023/02/08 01:16:18;;;;;;;35.55;25.95;;;4.20;99.90;;;4.40;74.72;103729.44;5074432;28;20131;-68
2023/02/08 01:18:49;;;;;;;40.60;26.20;;;4.30;99.90;;;4.39;74.72;103727.63;5074771;28;20049;-67
2023/02/08 01:21:22;;;;;;;37.47;26.20;;;4.30;99.90;;;4.45;74.27;103735.88;5076025;28;20074;-68
2023/02/08 01:23:51;;;;;;;35.27;25.67;;;4.30;99.90;;;4.42;74.21;103712.13;5076228;28;20371;-69
2023/02/08 01:26:21;;;;;;;35.00;25.13;;;4.30;99.90;;;4.47;73.92;103725.53;5081556;28;20458;-68
2023/02/08 01:28:52;;;;;;;;;;;4.30;99.90;;;4.48;74.28;103728.25;5096614;28;20048;-67
2023/02/08 01:31:23;;;;;;;38.58;25.23;;;4.30;99.90;;;4.52;73.90;103727.66;5095779;28;19946;-68
2023/02/08 01:33:52;;;;;;;34.43;24.43;;;4.40;99.90;;;4.53;73.70;103725.91;5077905;28;20055;-67
2023/02/08 01:36:22;;;;;;;35.20;23.70;;;4.30;99.90;;;4.46;73.75;103719.38;5095827;28;20036;-68
2023/02/08 01:38:50;;;;;;;36.77;23.93;;;4.30;99.90;;;4.53;73.61;103721.59;5095849;28;20492;-68
2023/02/08 01:41:21;;;;;;;39.70;23.93;;;4.30;99.90;;;4.52;73.70;103726.72;5095884;28;20075;-67
2023/02/08 01:44:09;;;;;;;32.43;23.53;;;4.40;99.90;;;4.59;73.74;103732.47;5077714;28;20161;-68
2023/02/08 01:46:39;;;;;;;37.80;25.10;;;4.40;99.90;;;4.63;73.04;103727.44;5074558;28;20098;-68
2023/02/08 01:49:13;;;;;;;36.88;24.42;;;4.50;99.90;;;4.63;73.12;103725.72;5095748;28;20478;-68
2023/02/08 01:51:45;;;;;;;35.60;24.67;;;4.50;99.90;;;4.56;73.20;103718.25;5095636;28;20105;-68
2023/02/08 01:54:17;;;;;;;33.57;23.67;;;4.50;99.90;;;4.60;73.27;103720.28;5095648;28;20134;-68
2023/02/08 01:56:47;;;;;;;38.03;24.63;;;4.50;99.90;;;4.62;72.98;103726.53;5095545;28;20082;-68
2023/02/08 01:59:22;;;;;;;33.72;24.08;;;4.50;99.90;;;4.61;72.96;103723.81;5077385;28;20052;-68
2023/02/08 02:01:54;;;;;;;34.67;25.13;;;4.50;99.90;;;4.36;73.07;103696.00;5077275;28;20135;-68
2023/02/08 02:04:23;;;;;;;37.00;24.27;;;4.50;99.90;;;4.61;72.96;103724.72;5095132;28;20064;-68
2023/02/08 02:06:57;;;;;;;35.63;24.37;;;4.50;99.90;;;4.49;72.64;103718.69;5095359;28;20397;-68
2023/02/08 02:09:31;;;;;;;33.80;24.10;;;4.50;99.90;;;4.35;72.74;103688.03;5077217;28;20379;-67
2023/02/08 02:12:01;;;;;;;33.57;23.93;;;4.40;99.90;;;4.55;72.72;103719.97;5094970;28;20040;-67
2023/02/08 02:14:31;;;;;;;36.00;24.43;;;4.40;99.90;;;4.57;72.94;103717.44;5075989;28;20516;-68
2023/02/08 02:17:00;;;;;;;32.28;23.15;;;4.40;99.90;;;4.51;72.93;103710.09;5077047;28;20044;-67
2023/02/08 02:19:39;;;;;;;36.63;24.73;;;4.40;99.90;;;4.53;72.74;103713.72;5076985;28;20151;-68
2023/02/08 02:22:33;;;;;;;39.80;25.07;;;4.40;99.90;;;4.45;73.18;103699.19;5076948;28;20048;-68
2023/02/08 02:25:37;;;;;;;33.10;24.20;;;4.40;99.90;;;4.53;72.77;103705.84;5094973;28;20048;-68
2023/02/08 02:28:47;;;;;;;36.13;24.77;;;4.40;99.90;;;4.50;72.74;103708.28;5094588;28;20076;-68
2023/02/08 02:31:54;;;;;;;35.17;25.37;;;4.40;99.90;;;4.45;72.83;103696.59;5093086;28;20498;-68
2023/02/08 02:34:32;;;;;;;38.03;24.17;;;4.40;99.90;;;4.45;72.85;103700.94;5094554;28;20054;-68
2023/02/08 02:37:13;;;;;;;37.37;24.17;;;4.40;99.90;;;4.46;73.07;103698.41;5095066;28;20047;-68
2023/02/08 02:39:51;;;;;;;37.53;25.73;;;4.40;99.90;;;4.44;72.78;103697.41;5094682;28;20087;-68
2023/02/08 02:45:33;;;;;;;36.93;24.93;;;4.40;99.90;;;4.47;72.68;103699.34;5094610;28;20044;-68
2023/02/08 02:48:12;;;;;;;42.40;26.83;;;4.40;99.90;;;4.50;72.47;103702.13;5094622;28;20080;-67
2023/02/08 02:50:45;;;;;;;38.50;25.70;;;4.40;99.90;;;4.39;72.71;103701.41;5094286;28;20097;-67
2023/02/08 02:53:22;;;;;;;41.50;26.73;;;4.30;99.90;;;4.39;72.47;103701.41;5094190;28;20089;-67
2023/02/08 02:55:58;;;;;;;37.80;23.90;;;4.30;99.90;;;4.34;72.82;103697.59;5094129;28;20050;-68
2023/02/08 02:58:28;;;;;;;34.77;24.97;;;4.30;99.90;;;4.24;72.93;103703.03;5094132;28;20549;-67
2023/02/08 03:00:58;;;;;;;;;;;4.20;99.90;;;4.21;73.34;103686.22;5094478;28;20481;-68
2023/02/08 03:03:33;;;;;;;36.77;24.67;;;4.20;99.90;;;4.27;73.49;103691.84;5094470;28;20038;-68
2023/02/08 03:06:05;;;;;;;39.93;26.37;;;4.20;99.90;;;4.34;73.43;103694.06;5094228;28;20101;-68
2023/02/08 03:09:18;;;;;;;36.43;25.00;;;4.20;99.90;;;4.33;73.01;103692.25;5093932;28;20101;-67
2023/02/08 03:11:56;;;;;;;35.90;24.17;;;4.20;99.90;;;4.34;72.80;103691.44;5074176;28;20056;-68
2023/02/08 03:14:34;;;;;;;35.27;23.80;;;4.30;99.90;;;4.28;73.13;103685.78;5075944;28;20043;-67
2023/02/08 03:17:22;;;;;;;34.77;25.20;;;4.20;99.90;;;4.28;73.24;103677.94;5093724;28;20048;-68
2023/02/08 03:20:05;;;;;;;38.83;24.90;;;4.20;99.90;;;4.26;72.96;103677.84;5075853;28;20056;-67
2023/02/08 03:22:45;;;;;;;35.87;25.47;;;4.20;99.90;;;4.25;72.92;103676.03;5093716;28;20043;-68
2023/02/08 03:25:19;;;;;;;;;;;4.20;99.90;;;4.20;72.91;103669.56;5075981;28;20094;-68
2023/02/08 03:27:56;;;;;;;41.70;26.77;;;4.20;99.90;;;4.23;72.80;103666.25;5093512;28;20360;-68
2023/02/08 03:30:33;;;;;;;37.83;26.37;;;4.20;99.90;;;4.19;72.77;103669.47;5094094;28;20040;-68
2023/02/08 03:33:07;;;;;;;35.40;25.53;;;4.10;99.90;;;4.21;73.07;103660.00;5093530;28;20486;-67
2023/02/08 03:35:42;;;;;;;39.00;25.17;;;4.10;99.90;;;3.68;73.09;103578.81;5093513;28;20050;-67
2023/02/08 03:38:16;;;;;;;39.07;27.17;;;4.10;99.90;;;4.10;72.97;103669.81;5093330;28;20097;-67
2023/02/08 03:40:48;;;;;;;38.20;26.33;;;4.00;99.90;;;4.07;73.24;103664.34;5093431;28;20048;-68
2023/02/08 03:43:23;;;;;;;39.10;24.50;;;4.00;99.90;;;4.08;73.21;103660.00;5093411;28;20046;-68
2023/02/08 03:45:57;;;;;;;41.03;25.80;;;4.00;99.90;;;4.05;73.41;103663.31;5093330;28;20131;-67
2023/02/08 03:48:28;;;;;;;42.97;26.33;;;4.00;99.90;;;4.05;73.18;103663.31;5093257;28;20043;-68
2023/02/08 03:51:00;;;;;;;38.93;25.43;;;4.00;99.90;;;4.04;73.16;103663.22;5093882;28;20067;-68
2023/02/08 03:53:37;;;;;;;40.67;26.67;;;4.00;99.90;;;4.06;73.29;103666.84;5093241;28;20123;-67
2023/02/08 03:56:10;;;;;;;37.97;25.43;;;4.00;99.90;;;4.10;73.06;103669.81;5093183;28;20509;-68
2023/02/08 03:58:45;;;;;;;39.27;26.40;;;4.00;99.90;;;4.04;73.28;103663.22;5093130;28;20576;-67
2023/02/08 04:01:20;;;;;;;42.83;26.07;;;4.00;99.90;;;4.03;73.49;103666.63;5093117;28;20059;-67
2023/02/08 04:03:52;;;;;;;39.50;25.23;;;4.00;99.90;;;3.99;73.21;103662.91;5093440;28;20044;-67
2023/02/08 04:06:22;;;;;;;41.13;25.70;;;3.90;99.90;;;4.01;73.32;103663.00;5075274;28;20134;-67
2023/02/08 04:08:51;;;;;;;;;;;3.90;99.90;;;4.00;73.07;103664.75;5075673;28;20090;-68
2023/02/08 04:11:20;;;;;;;38.40;25.17;;;3.90;99.90;;;4.03;73.30;103672.78;5093059;28;20284;-67
2023/02/08 04:13:48;;;;;;;34.50;23.60;;;4.00;99.90;;;4.03;73.27;103670.19;5093012;28;20386;-68
2023/02/08 04:16:16;;;;;;;35.83;25.37;;;3.90;99.90;;;3.98;73.06;103670.66;5093045;28;20482;-68
2023/02/08 04:18:44;;;;;;;37.63;24.50;;;3.90;99.90;;;3.93;72.95;103670.34;5093053;28;20036;-67
2023/02/08 04:21:13;;;;;;;38.67;26.30;;;3.90;99.90;;;3.91;73.30;103665.84;5093489;28;20501;-68
2023/02/08 04:23:42;;;;;;;41.63;25.57;;;3.90;99.90;;;3.88;73.66;103658.69;5092782;28;20516;-68
2023/02/08 04:26:11;;;;;;;39.17;25.27;;;3.90;99.90;;;3.89;72.99;103665.72;5092919;28;20040;-68
2023/02/08 04:28:39;;;;;;;36.93;24.97;;;3.80;99.90;;;3.90;73.46;103664.94;5092969;28;20054;-67
2023/02/08 04:31:07;;;;;;;34.00;24.77;;;3.80;99.90;;;3.83;73.01;103656.56;5092783;28;20452;-68
2023/02/08 04:33:36;;;;;;;37.10;24.87;;;3.80;99.90;;;3.69;73.07;103658.25;5093097;28;20089;-67
2023/02/08 04:36:05;;;;;;;33.17;23.30;;;3.70;99.90;;;3.63;73.76;103663.06;5074912;28;20507;-68
2023/02/08 04:38:33;;;;;;;37.03;24.27;;;3.60;99.90;;;3.62;73.55;103656.00;5095295;28;20389;-67
2023/02/08 04:41:03;;;;;;;36.33;24.50;;;3.60;99.90;;;3.59;73.87;103650.56;5097019;28;20055;-67
2023/02/08 04:43:31;;;;;;;32.58;24.13;;;3.50;99.90;;;3.50;73.78;103648.22;5097284;28;20044;-67
2023/02/08 04:46:00;;;;;;;34.47;24.47;;;3.50;99.90;;;3.41;74.13;103650.19;5096439;28;20055;-67
2023/02/08 04:48:28;;;;;;;39.10;25.37;;;3.40;99.90;;;3.33;74.31;103651.38;5096603;28;20079;-67
2023/02/08 04:50:57;;;;;;;35.37;24.83;;;3.30;99.90;;;3.21;75.01;103654.88;5096512;28;20040;-66
2023/02/08 04:53:26;;;;;;;36.67;26.63;;;3.20;99.90;;;3.21;74.80;103649.63;5096472;28;20048;-68
2023/02/08 04:55:54;;;;;;;35.77;25.30;;;3.20;99.90;;;2.79;75.35;103642.28;5096724;28;20036;-68
2023/02/08 04:58:24;;;;;;;34.33;24.50;;;2.90;99.90;;;2.69;76.32;103637.22;5096534;28;20417;-67
2023/02/08 05:00:52;;;;;;;37.65;24.88;;;2.70;99.90;;;2.70;76.52;103628.56;5096656;28;20062;-67
2023/02/08 05:03:20;;;;;;;34.37;24.77;;;2.70;99.90;;;2.67;76.95;103630.97;5096297;28;20054;-67
2023/02/08 05:05:57;;;;;;;35.50;26.00;;;2.60;99.90;;;2.38;77.50;103634.06;5096583;28;20157;-68
2023/02/08 05:08:26;;;;;;;37.53;25.87;;;2.40;99.90;;;2.50;77.86;103624.50;5096853;28;20080;-67
2023/02/08 05:10:54;;;;;;;37.23;25.87;;;2.50;99.90;;;2.25;78.36;103617.38;5078185;28;20043;-67
2023/02/08 05:13:24;;;;;;;40.93;27.00;;;2.30;99.90;;;2.09;78.58;103619.69;5096102;28;20068;-67
2023/02/08 05:15:52;;;;;;;38.08;26.20;;;2.20;99.90;;;2.01;79.13;103619.13;5096004;28;20101;-66
2023/02/08 05:18:21;;;;;;;41.77;26.63;;;2.10;99.90;;;1.85;79.61;103621.38;5095838;28;20040;-67
2023/02/08 05:20:55;;;;;;;38.83;26.50;;;1.90;99.90;;;1.92;80.24;103612.31;5096304;28;20046;-67
2023/02/08 05:23:24;;;;;;;39.57;26.77;;;1.90;99.90;;;1.85;80.47;103629.22;5096006;28;20048;-68
2023/02/08 05:25:52;;;;;;;37.63;26.10;;;1.80;99.90;;;2.17;80.17;103629.88;5095705;28;20078;-67
2023/02/08 05:28:20;;;;;;;41.37;26.20;;;2.00;99.90;;;2.36;79.97;103643.50;5095826;28;20047;-67
2023/02/08 05:30:50;;;;;;;37.23;26.17;;;2.20;99.90;;;2.44;79.37;103641.47;5096074;28;20497;-67
2023/02/08 05:33:19;;;;;;;34.47;25.23;;;2.40;99.90;;;2.60;79.06;103639.13;5095728;28;20568;-67
2023/02/08 05:35:47;;;;;;;41.20;25.33;;;2.50;99.90;;;2.61;78.71;103640.97;5095889;28;20402;-67
2023/02/08 05:38:15;;;;;;;34.63;25.30;;;2.60;99.90;;;2.46;78.55;103638.16;5095463;28;20050;-67
2023/02/08 05:40:44;;;;;;;37.97;25.30;;;2.50;99.90;;;2.52;78.43;103624.63;5077695;28;20074;-68
2023/02/08 05:43:12;;;;;;;36.10;26.10;;;2.50;99.90;;;2.61;78.09;103622.69;5095564;28;20071;-67
2023/02/08 05:45:40;;;;;;;35.10;26.03;;;2.60;99.90;;;2.80;77.67;103627.50;5095460;28;20512;-67
2023/02/08 05:48:10;;;;;;;34.33;25.73;;;2.70;99.90;;;2.59;76.98;103616.44;5095365;28;20044;-67
2023/02/08 05:50:38;;;;;;;37.85;25.73;;;2.60;99.90;;;2.57;77.50;103618.03;5095390;28;20043;-67
2023/02/08 05:53:10;;;;;;;42.00;25.77;;;2.60;99.90;;;2.26;77.59;103634.88;5095702;28;20040;-68
2023/02/08 05:55:38;;;;;;;43.10;26.87;;;2.40;99.90;;;2.34;77.57;103623.31;5095294;28;20119;-67
2023/02/08 05:58:07;;;;;;;35.73;25.90;;;2.30;99.90;;;2.39;77.47;103625.44;5095257;28;20044;-67
2023/02/08 06:00:35;;;;;;;36.90;26.10;;;2.40;99.90;;;2.48;77.84;103613.03;5095193;28;20123;-67
2023/02/08 06:03:03;;;;;;;38.10;25.13;;;2.40;99.90;;;2.40;77.17;103616.81;5095432;28;20044;-67
2023/02/08 06:05:33;;;;;;;34.47;25.40;;;2.50;99.90;;;2.13;77.92;103617.41;5095432;28;20097;-66
2023/02/08 06:08:01;;;;;;;35.40;25.90;;;2.20;99.90;;;1.96;78.40;103607.41;5095077;28;20393;-68
2023/02/08 06:10:30;;;;;;;35.10;25.50;;;2.00;99.90;;;1.98;79.22;103611.06;5095024;28;20114;-67
2023/02/08 06:12:58;;;;;;;38.23;25.83;;;1.90;99.90;;;2.18;79.09;103617.75;5094987;28;20468;-67
2023/02/08 06:15:26;;;;;;;37.00;24.67;;;2.10;99.90;;;2.15;78.68;103615.81;5095460;28;20036;-67
2023/02/08 06:17:55;;;;;;;34.03;25.13;;;2.10;99.90;;;2.31;78.41;103620.44;5094816;28;20118;-67
2023/02/08 06:20:24;;;;;;;32.80;24.80;;;2.20;99.90;;;2.44;78.28;103628.41;5095092;28;20050;-66
2023/02/08 06:22:54;;;;;;;35.80;25.13;;;2.30;99.90;;;2.53;77.76;103622.13;5076886;28;20044;-67
2023/02/08 06:25:23;;;;;;;35.93;25.53;;;2.50;99.90;;;2.48;77.53;103592.16;5095327;28;20060;-67
2023/02/08 06:27:51;;;;;;;34.93;25.07;;;2.50;99.90;;;2.56;77.32;103632.78;5095071;28;20054;-68
2023/02/08 06:30:20;;;;;;;34.80;24.83;;;2.60;99.90;;;2.65;76.78;103612.53;5094566;28;20046;-66
2023/02/08 06:32:48;;;;;;;37.67;24.57;;;2.50;99.90;;;2.61;76.59;103620.97;5094560;28;20042;-68
2023/02/08 06:35:16;;;;;;;36.10;24.03;;;2.60;99.90;;;2.65;76.44;103636.06;5094353;28;20048;-66
2023/02/08 06:37:45;;;;;;;31.87;23.37;;;2.60;99.90;;;2.71;76.37;103635.59;5094379;28;20513;-67
2023/02/08 06:40:14;;;;;;;34.30;24.17;;;2.60;99.90;;;2.85;76.40;103647.03;5094675;28;20074;-67
2023/02/08 06:42:43;;;;;;;34.72;25.05;;;2.70;99.90;;;2.84;76.40;103646.13;5094385;28;20043;-67
2023/02/08 06:45:11;;;;;;;34.67;24.17;;;2.70;99.90;;;2.90;76.24;103643.97;5094599;28;20036;-67
2023/02/08 06:47:41;;;;;;;35.20;25.47;;;2.80;99.90;;;2.91;76.12;103627.47;5094514;28;20040;-67
2023/02/08 06:50:10;;;;;;;36.37;25.63;;;2.80;99.90;;;2.90;75.38;103628.28;5094182;28;20050;-68
2023/02/08 06:52:38;;;;;;;38.43;24.83;;;2.80;99.90;;;2.64;75.42;103621.19;5094222;28;20071;-68
2023/02/08 06:55:07;;;;;;;35.27;24.03;;;2.60;99.90;;;1.83;76.28;103522.13;5094412;28;20051;-68
2023/02/08 06:57:37;;;;;;;36.67;25.03;;;2.30;99.90;;;2.18;76.77;103602.09;5094084;28;20130;-67
2023/02/08 07:00:07;;;;;;;41.13;26.30;;;2.10;99.90;;;2.41;77.32;103615.09;5094143;28;20047;-68
2023/02/08 07:02:35;;;;;;;41.42;26.75;;;2.30;99.90;;;2.56;76.95;103611.91;5094015;28;20036;-68
2023/02/08 07:05:03;;;;;;;39.03;24.90;;;2.40;99.90;;;2.53;76.87;103610.78;5094270;28;20040;-68
2023/02/08 07:07:32;;;;;;;39.03;23.90;;;2.50;99.90;;;2.58;76.48;103610.31;5093838;28;20036;-68
2023/02/08 07:10:00;;;;;;;38.47;25.00;;;2.50;99.90;;;2.72;76.33;103613.91;5093755;28;20044;-68
2023/02/08 07:12:28;;;;;;;40.17;24.97;;;2.60;99.90;;;2.79;76.09;103616.13;5093737;28;20042;-65
2023/02/08 07:14:58;;;;;;;33.67;25.17;;;2.70;99.90;;;2.89;75.80;103615.06;5093739;28;20075;-66
2023/02/08 07:17:26;;;;;;;33.03;23.40;;;2.80;99.90;;;2.88;75.30;103615.88;5093650;28;20581;-67
2023/02/08 07:19:54;;;;;;;34.97;25.83;;;2.80;99.90;;;2.90;75.53;103609.06;5093657;28;20048;-67
2023/02/08 07:22:23;;;;;;;35.93;25.37;;;2.80;99.90;;;2.99;75.49;103615.84;5093663;28;20502;-68
2023/02/08 07:24:51;;;;;;;33.77;24.73;;;2.90;99.90;;;2.74;75.52;103610.59;5093873;28;20044;-70
2023/02/08 07:27:19;;;;;;;35.43;24.53;;;2.80;99.90;;;2.62;75.79;103612.34;5093696;28;20052;-68
2023/02/08 07:29:48;;;;;;;37.00;26.23;;;2.70;99.90;;;2.94;75.72;103616.31;5093530;28;20135;-66
2023/02/08 07:32:17;;;;;;;36.73;24.63;;;2.80;99.90;;;3.30;75.38;103608.41;5093454;28;20051;-66
2023/02/08 07:34:46;;;;;;;37.22;24.67;;;3.10;99.90;;;3.49;75.12;103606.25;5093299;28;20044;-66
2023/02/08 07:37:14;;;;;;;35.63;25.00;;;3.40;99.90;;;3.86;74.53;103615.78;5075408;28;20484;-66
2023/02/08 07:39:42;;;;;;;34.67;24.30;;;3.70;99.90;;;4.14;73.24;103603.69;5093577;28;20043;-67
2023/02/08 07:42:11;;;;;;;35.33;24.77;;;4.00;99.90;;;4.07;72.04;103616.28;5075384;28;20044;-67
2023/02/08 07:44:52;;;;;;;32.07;22.93;;;4.00;99.90;;;4.34;71.72;103621.63;5093250;28;20481;-69
2023/02/08 07:47:22;;;;;;;35.77;23.97;;;4.20;99.90;;;4.76;70.42;103622.56;5093209;28;20089;-68
2023/02/08 07:49:50;;;;;;;31.95;22.95;;;4.50;99.90;;;4.84;69.46;103624.84;5093724;28;20048;-68
2023/02/08 07:52:18;;;;;;;32.80;22.57;;;4.70;99.90;;;4.67;68.72;103616.72;5093162;28;20470;-68
2023/02/08 07:54:47;;;;;;;31.38;22.45;;;4.60;99.90;;;4.51;68.65;103622.69;5093729;28;20122;-68
2023/02/08 07:57:19;;;;;;;32.37;22.43;;;4.40;99.90;;;4.55;68.76;103620.38;5093083;28;20044;-66
2023/02/08 07:59:48;;;;;;;29.63;22.53;;;4.30;99.90;;;4.49;68.49;103622.59;5093337;28;20375;-68
2023/02/08 08:02:17;;;;;;;32.40;23.90;;;4.30;99.90;;;4.68;69.20;103613.31;5093005;28;20048;-69
2023/02/08 08:04:47;;;;;;;31.23;24.77;;;4.40;99.90;;;5.00;68.63;103618.84;5092973;28;20048;-64
2023/02/08 08:07:15;;;;;;;33.95;24.77;;;4.70;99.90;;;5.06;66.92;103614.88;5093577;28;20062;-66
2023/02/08 08:09:44;;;;;;;33.23;23.63;;;4.80;99.90;;;4.28;66.80;103587.16;5093029;28;20046;-65
2023/02/08 08:12:12;;;;;;;37.15;24.75;;;4.40;99.90;;;4.03;68.77;103609.94;5093083;28;20102;-68
2023/02/08 08:14:40;;;;;;;33.47;22.60;;;3.90;99.90;;;3.84;69.67;103599.06;5097362;28;20402;-68
2023/02/08 08:17:08;;;;;;;33.97;22.90;;;3.70;99.90;;;4.14;69.68;103610.66;5097409;28;20044;-68
2023/02/08 08:19:37;;;;;;;36.73;24.60;;;3.90;99.90;;;4.15;69.88;103616.00;5097044;28;20044;-68
2023/02/08 08:22:07;;;;;;;37.57;23.67;;;3.90;99.90;;;3.99;70.16;103614.91;5097333;28;20495;-69
2023/02/08 08:24:35;;;;;;;34.88;23.58;;;3.80;99.90;;;4.12;69.83;103609.66;5097144;28;20051;-69
2023/02/08 08:27:05;;;;;;;39.17;25.60;;;3.90;99.90;;;4.16;70.75;103611.66;5097107;28;20048;-69
2023/02/08 08:29:34;;;;;;;39.58;24.70;;;3.90;99.90;;;4.47;69.80;103616.34;5097254;28;20135;-69
2023/02/08 08:32:03;;;;;;;36.03;24.93;;;4.20;99.90;;;4.46;68.85;103617.19;5097233;28;20127;-69
2023/02/08 08:34:32;;;;;;;34.42;24.08;;;4.30;99.90;;;4.14;69.43;103611.53;5097119;28;20044;-69
2023/02/08 08:37:02;;;;;;;38.60;24.13;;;4.10;99.90;;;4.15;70.36;103610.75;5097039;28;20437;-69
2023/02/08 08:39:32;;;;;;;39.50;24.60;;;3.90;99.90;;;3.81;70.04;103606.72;5096949;28;20075;-68
2023/02/08 08:42:02;;;;;;;35.80;24.98;;;3.70;99.90;;;3.84;71.26;103604.28;5097234;28;20044;-67
2023/02/08 08:44:31;;;;;;;;;;;3.60;99.90;;;3.78;70.82;103603.88;5097125;28;20047;-67
2023/02/08 08:47:00;;;;;;;37.27;24.33;;;3.60;99.90;;;4.23;71.77;103606.94;5096475;28;19920;-68
2023/02/08 08:49:29;;;;;;;33.30;23.08;;;3.90;99.90;;;4.11;70.34;103606.13;5096537;28;20052;-67
2023/02/08 08:51:58;;;;;;;34.80;24.20;;;3.90;99.90;;;3.96;70.98;103601.59;5096869;28;20131;-67
2023/02/08 08:54:26;;;;;;;36.85;24.58;;;3.80;99.90;;;4.23;71.30;103590.28;5096466;28;20048;-68
2023/02/08 08:56:56;;;;;;;34.43;24.40;;;3.90;99.90;;;4.95;69.82;103594.06;5096753;28;20075;-68
2023/02/08 08:59:24;;;;;;;34.77;24.10;;;4.60;99.90;;;4.97;68.11;103611.69;5096594;28;20405;-67
2023/02/08 09:01:53;;;;;;;34.03;23.17;;;4.80;99.90;;;4.84;68.08;103605.59;5096617;28;20282;-67
2023/02/08 09:04:21;;;;;;;35.65;24.77;;;4.70;99.90;;;5.06;69.15;103606.09;5096803;28;20101;-67
2023/02/08 09:06:50;;;;;;;38.05;24.75;;;4.80;99.90;;;5.09;68.41;103599.31;5096196;28;20040;-67
2023/02/08 09:09:20;;;;;;;36.70;25.13;;;4.90;99.90;;;5.29;68.42;103611.03;5096224;28;20079;-68
2023/02/08 09:11:49;;;;;;;34.53;24.42;;;5.00;99.90;;;5.34;68.60;103610.50;5096688;28;20044;-67
2023/02/08 09:14:19;;;;;;;34.72;24.80;;;5.00;99.90;;;4.82;68.67;103609.84;5096360;28;20050;-67
2023/02/08 09:16:48;;;;;;;35.53;24.53;;;4.70;99.90;;;5.19;68.79;103608.66;5096113;28;20050;-67
2023/02/08 09:19:16;;;;;;;32.08;24.13;;;4.80;99.90;;;5.01;68.34;103602.31;5096429;28;20286;-67
2023/02/08 09:21:44;;;;;;;36.40;24.15;;;4.80;99.90;;;5.49;69.58;103606.19;5096269;28;20072;-67
2023/02/08 09:24:13;;;;;;;37.22;25.02;;;5.10;99.90;;;5.61;68.90;103605.13;5095471;28;20097;-67
2023/02/08 09:26:41;;;;;;;32.40;23.10;;;5.20;99.90;;;5.88;67.69;103604.16;5095456;28;20056;-67
2023/02/08 09:29:09;;;;;;;36.17;24.90;;;5.50;99.90;;;6.01;66.85;103615.47;5095260;28;20074;-67
2023/02/08 09:31:40;;;;;;;40.00;23.90;;;5.80;99.90;;;6.42;66.62;103609.03;5095190;28;20093;-67
2023/02/08 09:34:09;;;;;;;33.97;23.85;;;6.00;99.90;;;6.28;65.87;103617.03;5095683;28;20040;-69
2023/02/08 09:36:40;;;;;;;35.80;23.92;;;6.10;99.90;;;6.35;66.09;103613.03;5095986;28;20048;-67
2023/02/08 09:39:12;;;;;;;37.47;24.90;;;6.00;99.90;;;6.46;64.68;103616.25;5095937;28;20048;-67
2023/02/08 09:42:15;;;;;;;29.40;24.27;;;6.30;99.90;;;6.64;64.98;103620.81;5095153;28;20048;-67
2023/02/08 09:45:02;;;;;;;36.97;25.35;;;6.40;99.90;;;6.26;64.95;103623.94;5095694;28;20126;-67
2023/02/08 09:47:35;;;;;;;36.05;24.58;;;6.20;99.90;;;6.41;67.39;103610.72;5095390;28;20051;-67
2023/02/08 09:50:10;;;;;;;33.13;24.08;;;6.10;99.90;;;5.98;66.09;103624.88;5095362;28;20101;-67
2023/02/08 09:52:42;;;;;;;34.20;25.67;;;5.90;99.90;;;6.14;67.58;103617.97;5095205;28;20040;-67
2023/02/08 09:55:27;;;;;;;30.98;23.48;;;5.90;99.90;;;6.62;66.47;103618.94;5095224;28;20066;-67
2023/02/08 09:57:58;;;;;;;34.45;24.45;;;6.10;99.90;;;6.64;63.98;103605.03;5095693;28;20044;-67
2023/02/08 10:00:35;;;;;;;33.10;23.17;;;6.60;99.90;;;6.40;64.97;103619.47;5095081;28;20501;-68
2023/02/08 10:03:08;;;;;;;32.72;22.85;;;6.10;99.90;;;6.64;63.46;103606.78;5095374;28;20139;-67
2023/02/08 10:05:36;;;;;;;31.60;23.23;;;6.30;99.90;;;6.23;64.30;103621.09;5095020;28;20071;-67
2023/02/08 10:08:09;;;;;;;35.53;23.85;;;6.00;99.90;;;6.28;64.52;103610.88;5094932;28;20032;-67
2023/02/08 10:10:51;;;;;;;30.98;23.00;;;6.00;99.90;;;7.13;63.15;103621.78;5076948;28;20562;-67
2023/02/08 10:13:38;;;;;;;32.03;21.83;;;6.60;99.90;;;7.38;61.04;103595.91;5094798;28;20040;-67
2023/02/08 10:16:19;;;;;;;26.42;19.63;;;7.10;99.90;;;7.16;58.58;103622.84;5094876;28;20047;-67
2023/02/08 10:18:59;;;;;;;31.52;20.50;;;7.10;99.90;;;7.76;56.92;103638.31;5095038;28;20504;-67
2023/02/08 10:21:50;;;;;;;36.88;20.73;;;7.50;99.90;;;7.56;56.77;103644.28;5094770;28;20059;-67
2023/02/08 10:25:05;;;;;;;29.98;18.95;;;7.40;99.90;;;7.61;57.28;103650.69;5094733;28;20123;-67
2023/02/08 10:27:44;;;;;;;28.02;20.05;;;7.20;99.90;;;7.31;56.43;103651.72;5092078;28;20052;-67
2023/02/08 10:30:29;;;;;;;26.85;19.42;;;7.10;99.90;;;6.67;55.86;103638.50;5094796;28;20043;-67
2023/02/08 10:33:02;;;;;;;24.55;18.65;;;6.60;99.90;;;6.84;56.82;103643.88;5094394;28;20129;-67
2023/02/08 10:35:36;;;;;;;27.05;18.20;;;6.70;99.90;;;6.60;57.43;103645.13;5094018;28;20144;-67
2023/02/08 10:38:25;;;;;;;26.73;18.25;;;6.40;99.90;;;6.88;56.51;103640.59;5094438;28;20097;-67